Time;durP1;ratioP1;P1;durP2;ratioP2;P2;SDS_P1;SDS_P2;PMS_P1;PMS_P2;Temp;Humidity;BMP_temperature;BMP_pressure;BME280_temperature;BME280_humidity;BME280_pressure;Samples;Min_cycle;Max_cycle;Signal;HPM_P1;HPM_P2
2024/03/12 00:00:50;;;;;;;;;;;11.30;87.50;;;;;;5010861;28;87017;-48
2024/03/12 00:03:15;;;;;;;;;;;11.30;87.50;;;;;;5021140;28;87075;-48
2024/03/12 00:05:41;;;;;;;;;;;11.30;87.50;;;;;;5017387;28;87557;-46
2024/03/12 00:08:07;;;;;;;;;;;11.30;87.60;;;;;;5020535;28;87049;-47
2024/03/12 00:10:33;;;;;;;;;;;11.30;87.50;;;;;;5020196;28;87113;-47
2024/03/12 00:13:01;;;;;;;;;;;11.30;87.60;;;;;;5017152;28;86816;-47
2024/03/12 00:15:27;;;;;;;;;;;11.30;87.50;;;;;;5022504;28;88573;-47
2024/03/12 00:17:53;;;;;;;;;;;11.30;87.50;;;;;;5018184;28;87057;-47
2024/03/12 00:20:35;;;;;;;;;;;11.30;87.50;;;;;;5018987;28;87958;-47
2024/03/12 00:23:01;;;;;;;;;;;11.30;87.50;;;;;;5012111;28;87412;-47
2024/03/12 00:25:28;;;;;;;;;;;11.30;87.50;;;;;;5020166;28;86977;-48
2024/03/12 00:27:54;;;;;;;;;;;11.20;87.40;;;;;;5011028;28;87883;-47
2024/03/12 00:30:24;;;;;;;;;;;11.20;87.50;;;;;;5021198;28;88646;-47
2024/03/12 00:32:51;;;;;;;;;;;11.20;87.50;;;;;;5017450;28;87021;-48
2024/03/12 00:35:16;;;;;;;;;;;11.20;87.50;;;;;;5018395;28;87497;-47
2024/03/12 00:37:42;;;;;;;;;;;11.20;87.50;;;;;;5017806;28;86748;-45
2024/03/12 00:40:11;;;;;;;;;;;11.20;87.50;;;;;;5015894;28;87500;-46
2024/03/12 00:42:38;;;;;;;;;;;11.20;87.50;;;;;;5021329;28;86961;-48
2024/03/12 00:45:06;;;;;;;;;;;11.20;87.40;;;;;;5019449;28;87945;-47
2024/03/12 00:47:33;;;;;;;;;;;11.20;87.40;;;;;;5020709;28;87916;-47
2024/03/12 00:50:00;;;;;;;;;;;11.20;87.50;;;;;;5016116;28;88619;-47
2024/03/12 00:52:26;;;;;;;;;;;11.20;87.40;;;;;;5017715;28;87709;-48
2024/03/12 00:54:51;;;;;;;;;;;11.20;87.40;;;;;;5016545;28;88793;-47
2024/03/12 00:57:17;;;;;;;;;;;11.20;87.40;;;;;;5016833;28;86956;-48
2024/03/12 00:59:43;;;;;;;;;;;11.20;87.40;;;;;;5019252;28;87106;-48
2024/03/12 01:02:11;;;;;;;;;;;11.20;87.40;;;;;;5018745;28;86231;-47
2024/03/12 01:04:38;;;;;;;;;;;11.20;87.50;;;;;;5021060;28;87159;-47
2024/03/12 01:07:07;;;;;;;;;;;11.20;87.50;;;;;;5022790;28;87043;-46
2024/03/12 01:09:39;;;;;;;;;;;11.20;87.50;;;;;;5022150;28;88723;-46
2024/03/12 01:12:06;;;;;;;;;;;11.10;87.40;;;;;;5011919;28;87802;-46
2024/03/12 01:14:31;;;;;;;;;;;11.10;87.40;;;;;;5018916;28;88158;-47
2024/03/12 01:16:57;;;;;;;;;;;11.10;87.40;;;;;;5017967;28;87039;-47
2024/03/12 01:19:25;;;;;;;;;;;11.10;87.50;;;;;;5017025;28;86990;-47
2024/03/12 01:21:51;;;;;;;;;;;11.10;87.40;;;;;;5023322;28;87773;-47
2024/03/12 01:24:16;;;;;;;;;;;11.10;87.40;;;;;;5015993;28;87087;-46
2024/03/12 01:26:42;;;;;;;;;;;11.10;87.40;;;;;;5023152;28;87117;-46
2024/03/12 01:29:07;;;;;;;;;;;11.10;87.50;;;;;;5019091;28;87044;-48
2024/03/12 01:31:33;;;;;;;;;;;11.10;87.40;;;;;;5023113;28;86922;-47
2024/03/12 01:33:59;;;;;;;;;;;11.10;87.40;;;;;;5019172;28;87922;-47
2024/03/12 01:36:34;;;;;;;;;;;11.00;87.40;;;;;;5023832;28;87657;-47
2024/03/12 01:39:08;;;;;;;;;;;11.10;87.40;;;;;;5022929;28;88000;-47
2024/03/12 01:41:41;;;;;;;;;;;11.00;87.40;;;;;;5022909;28;88561;-46
2024/03/12 01:44:08;;;;;;;;;;;11.00;87.40;;;;;;5023271;28;86894;-46
2024/03/12 01:46:35;;;;;;;;;;;11.00;87.40;;;;;;5024326;28;88443;-48
2024/03/12 01:49:01;;;;;;;;;;;11.00;87.40;;;;;;5023933;28;88578;-46
2024/03/12 01:51:27;;;;;;;;;;;11.00;87.30;;;;;;5018655;28;86220;-47
2024/03/12 01:53:53;;;;;;;;;;;11.00;87.40;;;;;;5022957;28;87728;-47
2024/03/12 01:56:19;;;;;;;;;;;11.00;87.40;;;;;;5023376;28;87438;-47
2024/03/12 01:58:45;;;;;;;;;;;11.00;87.40;;;;;;5017548;28;87920;-48
2024/03/12 02:01:10;;;;;;;;;;;11.00;87.40;;;;;;5014794;28;88775;-48
2024/03/12 02:03:36;;;;;;;;;;;10.90;87.40;;;;;;5022489;28;87101;-47
2024/03/12 02:06:02;;;;;;;;;;;11.00;87.30;;;;;;5021603;28;87910;-47
2024/03/12 02:08:29;;;;;;;;;;;11.00;87.30;;;;;;5016064;28;87482;-48
2024/03/12 02:10:54;;;;;;;;;;;11.00;87.40;;;;;;5018644;28;87027;-47
2024/03/12 02:13:21;;;;;;;;;;;11.00;87.40;;;;;;5014510;28;87099;-47
2024/03/12 02:15:46;;;;;;;;;;;10.90;87.30;;;;;;5018099;28;87838;-47
2024/03/12 02:18:12;;;;;;;;;;;10.90;87.40;;;;;;5021127;28;86982;-47
2024/03/12 02:20:38;;;;;;;;;;;10.90;87.40;;;;;;5016349;28;87782;-47
2024/03/12 02:23:04;;;;;;;;;;;10.90;87.40;;;;;;5021157;28;87867;-47
2024/03/12 02:25:30;;;;;;;;;;;10.90;87.40;;;;;;5017712;28;87827;-47
2024/03/12 02:27:56;;;;;;;;;;;10.90;87.40;;;;;;5022797;28;87569;-47
2024/03/12 02:30:22;;;;;;;;;;;10.90;87.40;;;;;;5020291;28;86939;-50
2024/03/12 02:32:47;;;;;;;;;;;10.90;87.40;;;;;;5020172;28;87967;-48
2024/03/12 02:35:15;;;;;;;;;;;10.90;87.40;;;;;;5023440;28;88270;-49
2024/03/12 02:37:41;;;;;;;;;;;10.90;87.40;;;;;;5017729;28;88848;-48
2024/03/12 02:40:12;;;;;;;;;;;10.80;87.40;;;;;;5027145;28;87775;-48
2024/03/12 02:42:38;;;;;;;;;;;10.90;87.40;;;;;;5021670;28;86914;-49
2024/03/12 02:45:04;;;;;;;;;;;10.90;87.40;;;;;;5022878;28;86989;-48
2024/03/12 02:47:30;;;;;;;;;;;10.80;87.40;;;;;;5008617;28;89853;-47
2024/03/12 02:49:57;;;;;;;;;;;10.90;87.40;;;;;;5020650;28;87007;-46
2024/03/12 02:52:23;;;;;;;;;;;10.80;87.30;;;;;;5019751;28;87858;-47
2024/03/12 02:54:49;;;;;;;;;;;10.80;87.40;;;;;;5018800;28;87754;-46
2024/03/12 02:57:14;;;;;;;;;;;10.80;87.40;;;;;;5016372;28;87184;-47
2024/03/12 02:59:40;;;;;;;;;;;10.80;87.40;;;;;;5016888;28;87054;-45
2024/03/12 03:02:05;;;;;;;;;;;10.80;87.40;;;;;;5025265;28;87651;-47
2024/03/12 03:04:36;;;;;;;;;;;10.80;87.40;;;;;;5015444;28;86793;-47
2024/03/12 03:07:04;;;;;;;;;;;10.80;87.30;;;;;;5022890;28;88866;-47
2024/03/12 03:09:30;;;;;;;;;;;10.80;87.40;;;;;;5015677;28;86935;-47
2024/03/12 03:11:55;;;;;;;;;;;10.80;87.40;;;;;;5017705;28;88013;-46
2024/03/12 03:14:21;;;;;;;;;;;10.80;87.40;;;;;;5016677;28;88576;-46
2024/03/12 03:16:48;;;;;;;;;;;10.70;87.40;;;;;;5017016;28;87620;-47
2024/03/12 03:19:13;;;;;;;;;;;10.70;87.40;;;;;;5019182;28;88083;-47
2024/03/12 03:21:39;;;;;;;;;;;10.70;87.50;;;;;;5019136;28;87714;-46
2024/03/12 03:24:05;;;;;;;;;;;10.70;87.50;;;;;;5022684;28;87187;-47
2024/03/12 03:26:30;;;;;;;;;;;10.70;87.40;;;;;;5017098;28;87625;-47
2024/03/12 03:28:57;;;;;;;;;;;10.70;87.40;;;;;;5021281;28;86309;-46
2024/03/12 03:31:24;;;;;;;;;;;10.70;87.40;;;;;;5012426;28;86796;-46
2024/03/12 03:33:50;;;;;;;;;;;10.70;87.40;;;;;;5017152;28;88049;-46
2024/03/12 03:36:16;;;;;;;;;;;10.70;87.40;;;;;;5016210;28;88450;-46
2024/03/12 03:38:42;;;;;;;;;;;10.70;87.40;;;;;;5015763;28;88987;-44
2024/03/12 03:41:09;;;;;;;;;;;10.70;87.50;;;;;;5020078;28;87498;-46
2024/03/12 03:43:34;;;;;;;;;;;10.70;87.40;;;;;;5016318;28;88161;-46
2024/03/12 03:46:00;;;;;;;;;;;10.60;87.40;;;;;;5017576;28;88025;-47
2024/03/12 03:48:26;;;;;;;;;;;10.70;87.40;;;;;;5018473;28;86993;-46
2024/03/12 03:50:51;;;;;;;;;;;10.60;87.40;;;;;;5020950;28;87915;-46
2024/03/12 03:53:17;;;;;;;;;;;10.70;87.40;;;;;;5018699;28;86696;-46
2024/03/12 03:55:43;;;;;;;;;;;10.60;87.30;;;;;;5016058;28;87137;-45
2024/03/12 03:58:09;;;;;;;;;;;10.60;87.40;;;;;;5016431;28;88119;-45
2024/03/12 04:00:36;;;;;;;;;;;10.60;87.40;;;;;;5014298;28;88486;-47
2024/03/12 04:03:06;;;;;;;;;;;10.60;87.40;;;;;;5020432;28;87359;-46
2024/03/12 04:05:35;;;;;;;;;;;10.60;87.50;;;;;;5018959;28;88318;-46
2024/03/12 04:08:01;;;;;;;;;;;10.60;87.40;;;;;;5017457;28;87244;-47
2024/03/12 04:10:26;;;;;;;;;;;10.60;87.40;;;;;;5015132;28;88069;-47
2024/03/12 04:12:55;;;;;;;;;;;10.60;87.40;;;;;;5015281;28;88455;-47
2024/03/12 04:15:22;;;;;;;;;;;10.60;87.40;;;;;;5014444;28;87045;-46
2024/03/12 04:17:47;;;;;;;;;;;10.50;87.40;;;;;;5019940;28;87882;-46
2024/03/12 04:20:16;;;;;;;;;;;10.60;87.50;;;;;;5018292;28;87115;-47
2024/03/12 04:22:45;;;;;;;;;;;10.60;87.40;;;;;;5016832;28;87090;-45
2024/03/12 04:25:12;;;;;;;;;;;10.50;87.40;;;;;;5019660;28;87954;-45
2024/03/12 04:27:38;;;;;;;;;;;10.50;87.30;;;;;;5016717;28;88963;-46
2024/03/12 04:30:10;;;;;;;;;;;10.50;87.40;;;;;;5021307;28;88480;-46
2024/03/12 04:32:36;;;;;;;;;;;10.50;87.30;;;;;;5009976;28;88331;-45
2024/03/12 04:35:05;;;;;;;;;;;10.50;87.40;;;;;;5019318;28;87461;-47
2024/03/12 04:37:32;;;;;;;;;;;10.50;87.40;;;;;;5013775;28;87061;-45
2024/03/12 04:40:06;;;;;;;;;;;10.50;87.40;;;;;;5017980;28;87594;-46
2024/03/12 04:42:33;;;;;;;;;;;10.50;87.40;;;;;;5019492;28;87041;-46
2024/03/12 04:44:59;;;;;;;;;;;10.50;87.40;;;;;;5020787;28;87742;-47
2024/03/12 04:47:24;;;;;;;;;;;10.50;87.40;;;;;;5025519;28;87981;-46
2024/03/12 04:49:51;;;;;;;;;;;10.40;87.40;;;;;;5018793;28;88112;-44
2024/03/12 04:52:17;;;;;;;;;;;10.40;87.40;;;;;;5022901;28;87149;-46
2024/03/12 04:54:43;;;;;;;;;;;10.40;87.40;;;;;;5022273;28;87602;-44
2024/03/12 04:57:08;;;;;;;;;;;10.40;87.40;;;;;;5017320;28;88194;-46
2024/03/12 04:59:34;;;;;;;;;;;10.40;87.40;;;;;;5022270;28;88642;-46
2024/03/12 05:02:00;;;;;;;;;;;10.40;87.30;;;;;;5016056;28;87045;-46
2024/03/12 05:04:25;;;;;;;;;;;10.40;87.40;;;;;;5024344;28;87765;-46
2024/03/12 05:06:51;;;;;;;;;;;10.40;87.50;;;;;;5020054;28;86912;-46
2024/03/12 05:09:20;;;;;;;;;;;10.40;87.40;;;;;;5021086;28;87319;-46
2024/03/12 05:11:45;;;;;;;;;;;10.40;87.40;;;;;;5020139;28;87034;-46
2024/03/12 05:14:11;;;;;;;;;;;10.40;87.40;;;;;;5018861;28;87936;-47
2024/03/12 05:16:37;;;;;;;;;;;10.40;87.40;;;;;;5016723;28;88626;-46
2024/03/12 05:19:02;;;;;;;;;;;10.40;87.40;;;;;;5018803;28;87495;-46
2024/03/12 05:21:28;;;;;;;;;;;10.40;87.30;;;;;;5018388;28;87042;-46
2024/03/12 05:23:54;;;;;;;;;;;10.40;87.30;;;;;;5018753;28;88108;-45
2024/03/12 05:26:26;;;;;;;;;;;10.40;87.30;;;;;;5020186;28;88094;-46
2024/03/12 05:28:58;;;;;;;;;;;10.30;87.30;;;;;;5018260;28;86848;-45
2024/03/12 05:31:36;;;;;;;;;;;10.30;87.40;;;;;;5019254;28;88176;-46
2024/03/12 05:34:02;;;;;;;;;;;10.30;87.40;;;;;;5024284;28;87503;-46
2024/03/12 05:36:40;;;;;;;;;;;10.30;87.30;;;;;;5020584;28;87973;-46
2024/03/12 05:39:20;;;;;;;;;;;10.30;87.40;;;;;;5014492;28;89533;-46
2024/03/12 05:41:49;;;;;;;;;;;10.20;87.40;;;;;;5019586;28;87220;-45
2024/03/12 05:49:44;;;;;;;;;;;10.20;87.30;;;;;;5023303;28;87917;-46
2024/03/12 05:52:10;;;;;;;;;;;10.30;87.40;;;;;;5020411;28;88007;-44
2024/03/12 05:54:35;;;;;;;;;;;10.20;87.90;;;;;;5024952;28;90269;-47
2024/03/12 05:57:01;;;;;;;;;;;10.20;87.40;;;;;;5023194;28;86287;-46
2024/03/12 05:59:27;;;;;;;;;;;10.20;87.30;;;;;;5021672;28;87648;-46
2024/03/12 06:01:52;;;;;;;;;;;10.20;87.30;;;;;;5017023;28;87566;-45
2024/03/12 06:04:18;;;;;;;;;;;10.20;87.40;;;;;;5019431;28;87893;-46
2024/03/12 06:06:47;;;;;;;;;;;10.20;87.40;;;;;;5022147;28;88311;-45
2024/03/12 06:09:13;;;;;;;;;;;10.20;87.40;;;;;;5021807;28;87562;-48
2024/03/12 06:11:39;;;;;;;;;;;10.20;87.40;;;;;;5017318;28;87353;-46
2024/03/12 06:14:06;;;;;;;;;;;10.20;87.90;;;;;;5013863;28;87999;-45
2024/03/12 06:16:32;;;;;;;;;;;10.20;87.40;;;;;;5020346;28;87875;-46
2024/03/12 06:18:58;;;;;;;;;;;10.20;87.40;;;;;;5016399;28;87599;-44
2024/03/12 06:21:24;;;;;;;;;;;10.10;87.90;;;;;;5021348;28;87176;-45
2024/03/12 06:23:49;;;;;;;;;;;10.20;87.40;;;;;;5018564;28;86906;-46
2024/03/12 06:26:15;;;;;;;;;;;10.20;87.40;;;;;;5019938;28;87468;-46
2024/03/12 06:28:40;;;;;;;;;;;10.20;87.40;;;;;;5020886;28;89237;-45
2024/03/12 06:31:06;;;;;;;;;;;10.10;87.40;;;;;;5019210;28;87947;-46
2024/03/12 06:33:32;;;;;;;;;;;10.10;87.40;;;;;;5022897;28;87559;-46
2024/03/12 06:35:57;;;;;;;;;;;10.10;87.40;;;;;;5018186;28;88586;-47
2024/03/12 06:38:23;;;;;;;;;;;10.10;87.40;;;;;;5022396;28;88754;-46
2024/03/12 06:40:49;;;;;;;;;;;10.10;87.40;;;;;;5019440;28;87053;-44
2024/03/12 06:43:17;;;;;;;;;;;10.10;87.40;;;;;;5018009;28;87884;-45
2024/03/12 06:45:43;;;;;;;;;;;10.10;87.40;;;;;;5018338;28;87043;-45
2024/03/12 06:48:08;;;;;;;;;;;10.10;87.50;;;;;;5016438;28;86975;-46
2024/03/12 06:50:34;;;;;;;;;;;10.10;87.30;;;;;;5018113;28;87946;-46
2024/03/12 06:53:00;;;;;;;;;;;10.10;87.30;;;;;;5014729;28;89572;-45
2024/03/12 06:55:27;;;;;;;;;;;10.10;87.30;;;;;;5016071;28;87316;-46
2024/03/12 06:57:59;;;;;;;;;;;10.10;87.30;;;;;;5019261;28;87040;-46
2024/03/12 07:00:40;;;;;;;;;;;10.10;87.20;;;;;;5021542;28;88885;-46
2024/03/12 07:03:06;;;;;;;;;;;10.10;87.10;;;;;;5014794;28;87586;-46
2024/03/12 07:05:37;;;;;;;;;;;10.10;87.20;;;;;;5017531;28;88497;-46
2024/03/12 07:08:05;;;;;;;;;;;10.10;87.20;;;;;;5020272;28;87053;-46
2024/03/12 07:10:31;;;;;;;;;;;10.10;87.30;;;;;;5016301;28;86812;-46
2024/03/12 07:13:00;;;;;;;;;;;10.00;87.30;;;;;;5020814;28;87415;-46
2024/03/12 07:15:27;;;;;;;;;;;10.10;87.50;;;;;;5018716;28;87633;-45
2024/03/12 07:17:53;;;;;;;;;;;10.00;87.50;;;;;;5017312;28;88985;-47
2024/03/12 07:20:20;;;;;;;;;;;10.10;87.50;;;;;;5018369;28;88025;-46
2024/03/12 07:22:46;;;;;;;;;;;10.10;87.40;;;;;;5021793;28;87725;-46
2024/03/12 07:25:11;;;;;;;;;;;10.10;87.40;;;;;;5018486;28;88572;-46
2024/03/12 07:27:38;;;;;;;;;;;10.10;87.40;;;;;;5016186;28;87060;-47
2024/03/12 07:30:09;;;;;;;;;;;10.10;87.40;;;;;;5013753;28;87063;-46
2024/03/12 07:32:35;;;;;;;;;;;10.10;87.50;;;;;;5021756;28;89277;-46
2024/03/12 07:35:01;;;;;;;;;;;10.10;87.50;;;;;;5018268;28;86281;-46
2024/03/12 07:37:27;;;;;;;;;;;10.10;87.50;;;;;;5015142;28;88422;-47
2024/03/12 07:39:52;;;;;;;;;;;10.10;87.50;;;;;;5019199;28;87859;-46
2024/03/12 07:42:20;;;;;;;;;;;10.10;87.60;;;;;;5016734;28;88326;-46
2024/03/12 07:44:49;;;;;;;;;;;10.10;87.50;;;;;;5019370;28;87918;-46
2024/03/12 07:47:14;;;;;;;;;;;10.00;87.50;;;;;;5013071;28;88433;-45
2024/03/12 07:49:41;;;;;;;;;;;10.00;87.50;;;;;;5021527;28;87151;-46
2024/03/12 07:52:09;;;;;;;;;;;10.00;87.60;;;;;;5017006;28;88501;-45
2024/03/12 07:54:34;;;;;;;;;;;10.10;87.60;;;;;;5013743;28;88764;-47
2024/03/12 07:57:00;;;;;;;;;;;10.10;87.50;;;;;;5018784;28;88136;-48
2024/03/12 07:59:28;;;;;;;;;;;10.00;87.50;;;;;;5019137;28;86705;-48
2024/03/12 08:01:54;;;;;;;;;;;10.00;87.50;;;;;;5017348;28;87104;-47
2024/03/12 08:04:25;;;;;;;;;;;10.00;87.50;;;;;;5019083;28;87270;-46
2024/03/12 08:06:50;;;;;;;;;;;10.10;87.60;;;;;;5019502;28;88264;-46
2024/03/12 08:09:18;;;;;;;;;;;10.10;87.60;;;;;;5022602;28;87700;-46
2024/03/12 08:11:44;;;;;;;;;;;10.00;87.60;;;;;;5016281;28;88280;-46
2024/03/12 08:14:10;;;;;;;;;;;10.10;87.60;;;;;;5016565;28;87043;-45
2024/03/12 08:16:36;;;;;;;;;;;10.10;87.50;;;;;;5013297;28;88710;-46
2024/03/12 08:19:02;;;;;;;;;;;10.10;87.40;;;;;;5019200;28;88281;-44
2024/03/12 08:21:27;;;;;;;;;;;10.10;87.40;;;;;;5017915;28;87027;-46
2024/03/12 08:23:54;;;;;;;;;;;10.10;87.40;;;;;;5017664;28;87793;-46
2024/03/12 08:26:20;;;;;;;;;;;10.10;87.40;;;;;;5022706;28;87628;-46
2024/03/12 08:28:46;;;;;;;;;;;10.10;87.30;;;;;;5018795;28;87125;-45
2024/03/12 08:31:11;;;;;;;;;;;10.10;87.30;;;;;;5015640;28;89819;-46
2024/03/12 08:33:39;;;;;;;;;;;10.10;87.20;;;;;;5013571;28;87210;-46
2024/03/12 08:36:04;;;;;;;;;;;10.10;87.20;;;;;;5015341;28;88262;-45
2024/03/12 08:38:31;;;;;;;;;;;10.10;87.20;;;;;;5013878;28;88143;-45
2024/03/12 08:40:56;;;;;;;;;;;10.10;87.30;;;;;;5012595;28;87029;-46
2024/03/12 08:43:22;;;;;;;;;;;10.20;87.30;;;;;;5029802;28;88690;-45
2024/03/12 08:45:47;;;;;;;;;;;10.20;87.20;;;;;;5018023;28;87336;-46
2024/03/12 08:48:13;;;;;;;;;;;10.10;87.80;;;;;;5018997;28;86228;-45
2024/03/12 08:50:38;;;;;;;;;;;10.20;87.30;;;;;;5015880;28;87429;-46
2024/03/12 08:53:04;;;;;;;;;;;10.10;87.20;;;;;;5017908;28;87081;-46
2024/03/12 08:55:30;;;;;;;;;;;10.10;87.30;;;;;;5014248;28;89706;-46
2024/03/12 08:57:55;;;;;;;;;;;10.10;87.30;;;;;;5016790;28;87766;-46
2024/03/12 09:00:21;;;;;;;;;;;10.10;87.30;;;;;;5014688;28;87747;-46
2024/03/12 09:02:47;;;;;;;;;;;10.10;87.30;;;;;;5020444;28;86958;-45
2024/03/12 09:05:12;;;;;;;;;;;10.10;87.40;;;;;;5014958;28;86969;-46
2024/03/12 09:07:38;;;;;;;;;;;10.20;87.40;;;;;;5020784;28;86957;-46
2024/03/12 09:10:11;;;;;;;;;;;10.10;87.40;;;;;;5021291;28;86967;-46
2024/03/12 09:12:36;;;;;;;;;;;10.10;87.50;;;;;;5015003;28;87996;-46
2024/03/12 09:15:02;;;;;;;;;;;10.10;87.50;;;;;;5014577;28;88651;-46
2024/03/12 09:17:28;;;;;;;;;;;10.10;87.50;;;;;;5016283;28;88519;-44
2024/03/12 09:19:54;;;;;;;;;;;10.10;87.60;;;;;;5019357;28;87940;-46
2024/03/12 09:22:20;;;;;;;;;;;10.10;87.80;;;;;;5020273;28;87702;-44
2024/03/12 09:24:45;;;;;;;;;;;10.10;87.80;;;;;;5016322;28;88639;-45
2024/03/12 09:27:11;;;;;;;;;;;10.10;87.80;;;;;;5019201;28;86925;-45
2024/03/12 09:29:39;;;;;;;;;;;10.10;87.80;;;;;;5021165;28;87005;-46
2024/03/12 09:32:05;;;;;;;;;;;10.10;87.80;;;;;;5022767;28;88306;-46
2024/03/12 09:34:33;;;;;;;;;;;10.10;87.90;;;;;;5020538;28;87780;-45
2024/03/12 09:36:58;;;;;;;;;;;10.00;87.80;;;;;;5019993;28;86666;-46
2024/03/12 09:39:24;;;;;;;;;;;10.10;87.90;;;;;;5014706;28;87487;-46
2024/03/12 09:41:53;;;;;;;;;;;10.10;87.90;;;;;;5022738;28;87953;-46
2024/03/12 09:44:20;;;;;;;;;;;10.10;87.90;;;;;;5019063;28;88596;-46
2024/03/12 09:46:46;;;;;;;;;;;10.10;87.90;;;;;;5022142;28;86998;-45
2024/03/12 09:49:13;;;;;;;;;;;10.10;88.00;;;;;;5021246;28;87025;-46
2024/03/12 09:51:39;;;;;;;;;;;10.10;88.00;;;;;;5020269;28;88965;-44
2024/03/12 09:54:04;;;;;;;;;;;10.10;88.00;;;;;;5021806;28;87377;-45
2024/03/12 09:56:33;;;;;;;;;;;10.10;88.10;;;;;;5021677;28;87915;-46
2024/03/12 09:58:59;;;;;;;;;;;10.10;88.00;;;;;;5020158;28;87969;-47
2024/03/12 10:01:25;;;;;;;;;;;10.10;88.00;;;;;;5021559;28;87252;-46
2024/03/12 10:03:53;;;;;;;;;;;10.10;88.10;;;;;;5020750;28;87408;-45
2024/03/12 10:06:18;;;;;;;;;;;10.10;87.90;;;;;;5018559;28;86971;-45
2024/03/12 10:08:44;;;;;;;;;;;10.10;88.10;;;;;;5020919;28;88061;-47
2024/03/12 10:11:09;;;;;;;;;;;10.10;88.10;;;;;;5019227;28;88390;-44
2024/03/12 10:13:38;;;;;;;;;;;10.10;88.00;;;;;;5022698;28;86954;-45
2024/03/12 10:16:04;;;;;;;;;;;10.10;88.10;;;;;;5016632;28;87391;-46
2024/03/12 10:18:30;;;;;;;;;;;10.10;88.10;;;;;;5017799;28;88352;-45
2024/03/12 10:20:57;;;;;;;;;;;10.10;88.10;;;;;;5018437;28;87994;-46
2024/03/12 10:23:25;;;;;;;;;;;10.10;88.20;;;;;;5012503;28;87600;-45
2024/03/12 10:25:51;;;;;;;;;;;10.10;88.20;;;;;;5020474;28;86751;-46
2024/03/12 10:28:22;;;;;;;;;;;10.10;88.20;;;;;;5018627;28;86955;-44
2024/03/12 10:30:47;;;;;;;;;;;10.10;88.20;;;;;;5015643;28;87715;-47
2024/03/12 10:33:14;;;;;;;;;;;10.10;88.20;;;;;;5013939;28;88091;-46
2024/03/12 10:35:44;;;;;;;;;;;10.10;88.20;;;;;;5016908;28;87998;-44
2024/03/12 10:38:31;;;;;;;;;;;10.10;88.10;;;;;;5023407;28;87073;-45
2024/03/12 10:40:57;;;;;;;;;;;10.10;88.10;;;;;;5019869;28;86992;-45
2024/03/12 10:43:26;;;;;;;;;;;10.10;88.70;;;;;;5017862;28;87540;-46
2024/03/12 10:45:52;;;;;;;;;;;10.20;88.10;;;;;;5016677;28;87026;-47
2024/03/12 10:48:18;;;;;;;;;;;10.20;88.10;;;;;;5020688;28;87869;-46
2024/03/12 10:50:44;;;;;;;;;;;10.20;88.10;;;;;;5016724;28;87963;-46
2024/03/12 10:53:11;;;;;;;;;;;10.20;88.00;;;;;;5024068;28;87032;-45
2024/03/12 10:55:38;;;;;;;;;;;10.20;87.90;;;;;;5013846;28;88038;-46
2024/03/12 10:58:05;;;;;;;;;;;10.30;87.90;;;;;;5018369;28;90039;-46
2024/03/12 11:00:31;;;;;;;;;;;10.30;87.90;;;;;;5019789;28;88782;-46
2024/03/12 11:02:57;;;;;;;;;;;10.30;87.80;;;;;;5023144;28;87560;-47
2024/03/12 11:05:29;;;;;;;;;;;10.30;87.90;;;;;;5021200;28;87055;-46
2024/03/12 11:07:59;;;;;;;;;;;10.30;87.80;;;;;;5016752;28;87015;-46
2024/03/12 11:10:28;;;;;;;;;;;10.30;87.90;;;;;;5016534;28;88465;-46
2024/03/12 11:12:54;;;;;;;;;;;10.30;88.00;;;;;;5009708;28;86945;-46
2024/03/12 11:15:20;;;;;;;;;;;10.40;87.80;;;;;;5020475;28;87847;-44
2024/03/12 11:17:48;;;;;;;;;;;10.40;87.70;;;;;;5018051;28;88495;-45
2024/03/12 11:20:17;;;;;;;;;;;10.40;87.80;;;;;;5015109;28;88428;-44
2024/03/12 11:22:44;;;;;;;;;;;10.40;87.80;;;;;;5015678;28;89978;-45
2024/03/12 11:25:11;;;;;;;;;;;10.40;87.90;;;;;;5019640;28;87070;-46
2024/03/12 11:27:37;;;;;;;;;;;10.40;87.90;;;;;;5018504;28;87827;-46
2024/03/12 11:30:14;;;;;;;;;;;10.40;87.90;;;;;;5019529;28;86929;-46
2024/03/12 11:32:48;;;;;;;;;;;10.40;87.90;;;;;;5019962;28;87014;-45
2024/03/12 11:35:16;;;;;;;;;;;10.40;88.00;;;;;;5015692;28;88017;-45
2024/03/12 11:38:01;;;;;;;;;;;10.40;88.00;;;;;;5016241;28;86971;-46
2024/03/12 11:40:30;;;;;;;;;;;10.40;87.90;;;;;;5017626;28;86301;-46
2024/03/12 11:42:56;;;;;;;;;;;10.40;88.00;;;;;;5020915;28;88749;-45
2024/03/12 11:45:37;;;;;;;;;;;10.50;88.00;;;;;;5013402;28;88105;-46
2024/03/12 11:48:06;;;;;;;;;;;10.50;88.00;;;;;;5017485;28;87947;-46
2024/03/12 11:50:33;;;;;;;;;;;10.50;88.00;;;;;;5020162;28;88435;-46
2024/03/12 11:53:21;;;;;;;;;;;10.50;88.00;;;;;;5013918;28;86978;-45
2024/03/12 11:55:57;;;;;;;;;;;10.50;88.10;;;;;;5018007;28;88006;-45
2024/03/12 11:58:26;;;;;;;;;;;10.50;88.10;;;;;;5011273;28;87448;-46
2024/03/12 12:00:52;;;;;;;;;;;10.50;88.10;;;;;;5016413;28;87050;-46
2024/03/12 12:03:17;;;;;;;;;;;10.50;88.20;;;;;;5015520;28;87166;-46
2024/03/12 12:05:47;;;;;;;;;;;10.50;88.30;;;;;;5018728;28;88469;-47
2024/03/12 12:08:15;;;;;;;;;;;10.50;88.10;;;;;;5015516;28;87222;-46
2024/03/12 12:10:42;;;;;;;;;;;10.50;88.20;;;;;;5015953;28;88384;-44
2024/03/12 12:13:16;;;;;;;;;;;10.50;88.30;;;;;;5017235;28;88081;-46
2024/03/12 12:16:15;;;;;;;;;;;10.50;88.20;;;;;;5018234;28;88020;-45
2024/03/12 12:18:41;;;;;;;;;;;10.50;88.40;;;;;;5002087;28;88395;-44
2024/03/12 12:21:14;;;;;;;;;;;10.50;88.40;;;;;;5017078;28;86989;-46
2024/03/12 12:23:43;;;;;;;;;;;10.50;88.50;;;;;;5015814;28;87788;-46
2024/03/12 12:26:12;;;;;;;;;;;10.50;88.60;;;;;;5019585;28;89136;-46
2024/03/12 12:28:37;;;;;;;;;;;10.50;88.70;;;;;;5018886;28;88066;-46
2024/03/12 12:31:04;;;;;;;;;;;10.50;88.60;;;;;;5010361;28;87177;-47
2024/03/12 12:33:38;;;;;;;;;;;10.50;88.70;;;;;;5013915;28;86986;-45
2024/03/12 12:36:05;;;;;;;;;;;10.50;88.70;;;;;;5018628;28;88088;-46
2024/03/12 12:38:37;;;;;;;;;;;10.50;88.70;;;;;;5019139;28;89602;-46
2024/03/12 12:41:04;;;;;;;;;;;10.50;88.80;;;;;;5014761;28;87844;-45
2024/03/12 12:43:33;;;;;;;;;;;10.50;88.80;;;;;;5013586;28;87158;-45
2024/03/12 12:46:05;;;;;;;;;;;10.50;89.00;;;;;;5014725;28;87840;-45
2024/03/12 12:48:37;;;;;;;;;;;10.40;88.80;;;;;;5014437;28;87097;-45
2024/03/12 12:51:03;;;;;;;;;;;10.50;88.90;;;;;;5011432;28;87574;-45
2024/03/12 12:53:29;;;;;;;;;;;10.40;88.90;;;;;;5010114;28;88079;-45
2024/03/12 12:55:58;;;;;;;;;;;10.50;89.70;;;;;;5017124;28;87038;-45
2024/03/12 12:58:25;;;;;;;;;;;10.40;89.10;;;;;;5012528;28;90508;-46
2024/03/12 13:01:04;;;;;;;;;;;10.40;89.20;;;;;;5017580;28;87032;-45
2024/03/12 13:03:38;;;;;;;;;;;10.40;89.30;;;;;;5015627;28;88206;-44
2024/03/12 13:06:15;;;;;;;;;;;10.40;89.40;;;;;;5020520;28;88733;-45
2024/03/12 13:08:42;;;;;;;;;;;10.40;89.50;;;;;;5019936;28;87188;-44
2024/03/12 13:11:10;;;;;;;;;;;10.40;89.50;;;;;;5023597;28;87452;-44
2024/03/12 13:13:43;;;;;;;;;;;10.40;89.40;;;;;;5017704;28;87513;-45
2024/03/12 13:16:10;;;;;;;;;;;10.40;89.40;;;;;;5023465;28;87484;-46
2024/03/12 13:18:36;;;;;;;;;;;10.40;89.60;;;;;;5019405;28;88264;-47
2024/03/12 13:21:02;;;;;;;;;;;10.40;89.60;;;;;;5015898;28;86407;-47
2024/03/12 13:23:30;;;;;;;;;;;10.40;89.70;;;;;;5020257;28;87903;-46
2024/03/12 13:25:56;;;;;;;;;;;10.40;89.80;;;;;;5017363;28;87614;-45
2024/03/12 13:28:22;;;;;;;;;;;10.40;89.80;;;;;;5019012;28;88038;-45
2024/03/12 13:30:50;;;;;;;;;;;10.30;89.80;;;;;;5022189;28;88839;-45
2024/03/12 13:33:16;;;;;;;;;;;10.30;89.80;;;;;;5017977;28;88016;-45
2024/03/12 13:35:42;;;;;;;;;;;10.40;89.90;;;;;;5020834;28;87677;-46
2024/03/12 13:38:09;;;;;;;;;;;10.40;90.00;;;;;;5013675;28;87776;-47
2024/03/12 13:40:35;;;;;;;;;;;10.40;90.00;;;;;;5016076;28;87109;-47
2024/03/12 13:43:00;;;;;;;;;;;10.40;90.00;;;;;;5020973;28;88078;-45
2024/03/12 13:45:26;;;;;;;;;;;10.40;90.00;;;;;;5022325;28;88491;-46
2024/03/12 13:47:52;;;;;;;;;;;10.30;90.00;;;;;;5021908;28;87033;-44
2024/03/12 13:50:17;;;;;;;;;;;10.30;90.00;;;;;;5021621;28;87821;-45
2024/03/12 13:52:43;;;;;;;;;;;10.40;90.10;;;;;;5018492;28;87957;-45
2024/03/12 13:55:11;;;;;;;;;;;10.40;90.00;;;;;;5020145;28;87006;-46
2024/03/12 13:57:38;;;;;;;;;;;10.40;90.10;;;;;;5020217;28;88760;-46
2024/03/12 14:00:09;;;;;;;;;;;10.40;90.10;;;;;;5017326;28;88233;-45
2024/03/12 14:02:35;;;;;;;;;;;10.40;90.10;;;;;;5018298;28;88066;-47
2024/03/12 14:05:01;;;;;;;;;;;10.40;90.10;;;;;;5017622;28;87433;-46
2024/03/12 14:07:26;;;;;;;;;;;10.40;90.10;;;;;;5015596;28;87347;-46
2024/03/12 14:09:54;;;;;;;;;;;10.40;90.10;;;;;;5017497;28;87899;-46
2024/03/12 14:12:19;;;;;;;;;;;10.40;90.10;;;;;;5014037;28;87198;-46
2024/03/12 14:14:45;;;;;;;;;;;10.40;90.10;;;;;;5021530;28;86766;-46
2024/03/12 14:17:11;;;;;;;;;;;10.40;90.00;;;;;;5021411;28;87920;-46
2024/03/12 14:19:36;;;;;;;;;;;10.40;90.00;;;;;;5017672;28;87422;-48
2024/03/12 14:22:03;;;;;;;;;;;10.40;90.00;;;;;;5018062;28;87828;-46